DLH9K LSGG-EDDF
Flight info
| Callsign | DLH9K |
|---|---|
| Flight time | 1h 0m |
| Altitude | 32000 |
| Route | SOSAL N871 KORED DCT BERSU DCT DITON/N0410F330 DCT LADOL/N0405F320 T163 EMPAX EMPAX5D |
| Aircraft | A320/M-SDE2E3FGIJ1LORWXYZ/HB1 |
Departure
| Time | 2026-05-08 06:35 |
|---|---|
| Airport | Geneva International Airport (LSGG) |
Arrival
| Time | 2026-05-08 07:36 |
|---|---|
| Airport | Frankfurt Main Airport (EDDF) |
| Time | Latitude | Longitude | Altitude | Speed | Heading |
|---|---|---|---|---|---|
| 2026-05-08 05:56 | 46.23053 | 6.10616 | 1393 ft | 0 kts | 135° |
| 2026-05-08 06:30 | 46.23056 | 6.10612 | 1393 ft | 2 kts | 135° |
| 2026-05-08 06:30 | 46.23067 | 6.10597 | 1394 ft | 2 kts | 135° |
| 2026-05-08 06:30 | 46.23077 | 6.10581 | 1394 ft | 2 kts | 135° |
| 2026-05-08 06:30 | 46.23088 | 6.10566 | 1394 ft | 2 kts | 135° |
| 2026-05-08 06:31 | 46.23096 | 6.10555 | 1394 ft | 1 kts | 169° |
| 2026-05-08 06:31 | 46.23106 | 6.10557 | 1394 ft | 0 kts | 220° |
| 2026-05-08 06:31 | 46.23109 | 6.10564 | 1394 ft | 1 kts | 227° |
| 2026-05-08 06:31 | 46.23111 | 6.10567 | 1394 ft | 0 kts | 226° |
| 2026-05-08 06:32 | 46.23111 | 6.10566 | 1394 ft | 0 kts | 226° |
| 2026-05-08 06:32 | 46.23095 | 6.10542 | 1394 ft | 15 kts | 224° |
| 2026-05-08 06:33 | 46.22995 | 6.10398 | 1397 ft | 20 kts | 225° |
| 2026-05-08 06:33 | 46.22971 | 6.10280 | 1397 ft | 9 kts | 314° |
| 2026-05-08 06:33 | 46.23040 | 6.10183 | 1399 ft | 16 kts | 316° |
| 2026-05-08 06:33 | 46.23020 | 6.10065 | 1402 ft | 16 kts | 223° |
| 2026-05-08 06:34 | 46.22926 | 6.09922 | 1404 ft | 10 kts | 240° |
| 2026-05-08 06:34 | 46.22935 | 6.09838 | 1407 ft | 7 kts | 288° |
| 2026-05-08 06:34 | 46.22950 | 6.09773 | 1409 ft | 7 kts | 288° |
| 2026-05-08 06:34 | 46.23002 | 6.09720 | 1412 ft | 15 kts | 15° |
| 2026-05-08 06:35 | 46.23173 | 6.09959 | 1405 ft | 68 kts | 45° |
| 2026-05-08 06:35 | 46.23675 | 6.10695 | 1384 ft | 136 kts | 46° |
| 2026-05-08 06:35 | 46.24391 | 6.11767 | 1813 ft | 151 kts | 46° |
| 2026-05-08 06:35 | 46.25126 | 6.12831 | 2414 ft | 157 kts | 45° |
| 2026-05-08 06:36 | 46.25905 | 6.13941 | 3116 ft | 160 kts | 45° |
| 2026-05-08 06:36 | 46.26707 | 6.15117 | 3689 ft | 173 kts | 45° |
| 2026-05-08 06:36 | 46.27586 | 6.16410 | 4210 ft | 190 kts | 46° |
| 2026-05-08 06:36 | 46.28550 | 6.17828 | 4732 ft | 207 kts | 46° |
| 2026-05-08 06:37 | 46.29584 | 6.19347 | 5249 ft | 224 kts | 46° |
| 2026-05-08 06:37 | 46.30725 | 6.21021 | 5716 ft | 246 kts | 46° |
| 2026-05-08 06:37 | 46.31944 | 6.22811 | 6502 ft | 254 kts | 46° |
| 2026-05-08 06:37 | 46.33187 | 6.24636 | 7405 ft | 257 kts | 46° |
| 2026-05-08 06:38 | 46.34429 | 6.26459 | 8239 ft | 261 kts | 46° |
| 2026-05-08 06:38 | 46.35691 | 6.28323 | 9059 ft | 265 kts | 49° |
| 2026-05-08 06:38 | 46.36789 | 6.30508 | 9634 ft | 278 kts | 63° |
| 2026-05-08 06:38 | 46.37529 | 6.33164 | 10212 ft | 290 kts | 74° |
| 2026-05-08 06:39 | 46.38099 | 6.36000 | 10762 ft | 305 kts | 75° |
| 2026-05-08 06:39 | 46.38684 | 6.39047 | 11295 ft | 319 kts | 75° |
| 2026-05-08 06:39 | 46.39284 | 6.42143 | 12074 ft | 325 kts | 75° |
| 2026-05-08 06:39 | 46.39900 | 6.45274 | 12881 ft | 328 kts | 75° |
| 2026-05-08 06:40 | 46.40535 | 6.48470 | 13642 ft | 332 kts | 75° |
| 2026-05-08 06:40 | 46.41169 | 6.51661 | 14387 ft | 336 kts | 75° |
| 2026-05-08 06:40 | 46.41825 | 6.54952 | 15098 ft | 341 kts | 75° |
| 2026-05-08 06:40 | 46.42479 | 6.58241 | 15789 ft | 345 kts | 74° |
| 2026-05-08 06:41 | 46.43139 | 6.61558 | 16450 ft | 349 kts | 74° |
| 2026-05-08 06:41 | 46.43827 | 6.64939 | 17121 ft | 353 kts | 71° |
| 2026-05-08 06:41 | 46.44822 | 6.68233 | 17770 ft | 358 kts | 62° |
| 2026-05-08 06:41 | 46.46184 | 6.71211 | 18446 ft | 360 kts | 53° |
| 2026-05-08 06:42 | 46.47757 | 6.74062 | 19114 ft | 362 kts | 51° |
| 2026-05-08 06:42 | 46.49352 | 6.76870 | 19727 ft | 366 kts | 51° |
| 2026-05-08 06:42 | 46.50979 | 6.79741 | 20347 ft | 370 kts | 51° |
| 2026-05-08 06:42 | 46.52615 | 6.82655 | 20916 ft | 374 kts | 51° |
| 2026-05-08 06:43 | 46.54240 | 6.85571 | 21483 ft | 378 kts | 51° |
| 2026-05-08 06:43 | 46.55907 | 6.88570 | 22057 ft | 382 kts | 51° |
| 2026-05-08 06:43 | 46.57572 | 6.91558 | 22605 ft | 385 kts | 51° |
| 2026-05-08 06:43 | 46.59257 | 6.94580 | 23147 ft | 389 kts | 51° |
| 2026-05-08 06:44 | 46.60954 | 6.97626 | 23675 ft | 393 kts | 51° |
| 2026-05-08 06:44 | 46.62688 | 7.00745 | 24197 ft | 396 kts | 51° |
| 2026-05-08 06:44 | 46.64409 | 7.03846 | 24742 ft | 399 kts | 51° |
| 2026-05-08 06:44 | 46.66159 | 7.07003 | 25246 ft | 402 kts | 51° |
| 2026-05-08 06:45 | 46.67910 | 7.10168 | 25711 ft | 406 kts | 51° |
| 2026-05-08 06:45 | 46.69677 | 7.13365 | 26156 ft | 410 kts | 51° |
| 2026-05-08 06:45 | 46.71466 | 7.16608 | 26591 ft | 413 kts | 51° |
| 2026-05-08 06:45 | 46.73255 | 7.19855 | 27001 ft | 417 kts | 51° |
| 2026-05-08 06:46 | 46.75089 | 7.23188 | 27425 ft | 421 kts | 51° |
| 2026-05-08 06:46 | 46.76917 | 7.26512 | 27851 ft | 424 kts | 51° |
| 2026-05-08 06:46 | 46.78764 | 7.29872 | 28258 ft | 427 kts | 51° |
| 2026-05-08 06:46 | 46.80624 | 7.33261 | 28652 ft | 431 kts | 51° |
| 2026-05-08 06:47 | 46.82498 | 7.36682 | 29025 ft | 434 kts | 51° |
| 2026-05-08 06:47 | 46.84368 | 7.40100 | 29460 ft | 436 kts | 51° |
| 2026-05-08 06:47 | 46.86248 | 7.43537 | 29964 ft | 435 kts | 51° |
| 2026-05-08 06:47 | 46.88132 | 7.46988 | 30433 ft | 435 kts | 51° |
| 2026-05-08 06:48 | 46.90016 | 7.50446 | 30799 ft | 438 kts | 51° |
| 2026-05-08 06:48 | 46.91929 | 7.53960 | 31145 ft | 440 kts | 51° |
| 2026-05-08 06:48 | 46.93821 | 7.57440 | 31534 ft | 441 kts | 51° |
| 2026-05-08 06:48 | 46.95726 | 7.60956 | 31899 ft | 442 kts | 51° |
| 2026-05-08 06:49 | 46.97634 | 7.64476 | 32013 ft | 444 kts | 51° |
| 2026-05-08 06:49 | 46.99554 | 7.68028 | 32019 ft | 445 kts | 52° |
| 2026-05-08 06:49 | 47.03371 | 7.75105 | 32026 ft | 445 kts | 52° |
| 2026-05-08 06:50 | 47.07194 | 7.82216 | 32023 ft | 445 kts | 51° |
| 2026-05-08 06:50 | 47.11023 | 7.89351 | 32021 ft | 446 kts | 51° |
| 2026-05-08 06:51 | 47.14703 | 7.96701 | 32027 ft | 446 kts | 57° |
| 2026-05-08 06:51 | 47.18035 | 8.04470 | 32244 ft | 454 kts | 58° |
| 2026-05-08 06:52 | 47.19687 | 8.08380 | 32609 ft | 455 kts | 58° |
| 2026-05-08 06:52 | 47.21359 | 8.12332 | 32969 ft | 452 kts | 58° |
| 2026-05-08 06:52 | 47.24666 | 8.20138 | 33033 ft | 451 kts | 58° |
| 2026-05-08 06:53 | 47.28187 | 8.27720 | 33035 ft | 449 kts | 49° |
| 2026-05-08 06:53 | 47.32610 | 8.34045 | 33041 ft | 447 kts | 36° |
| 2026-05-08 06:54 | 47.37850 | 8.38821 | 33030 ft | 443 kts | 24° |
| 2026-05-08 06:54 | 47.43413 | 8.42717 | 33030 ft | 443 kts | 22° |
| 2026-05-08 06:55 | 47.48984 | 8.46596 | 33030 ft | 442 kts | 22° |
| 2026-05-08 06:55 | 47.54514 | 8.50499 | 33030 ft | 442 kts | 23° |
| 2026-05-08 06:56 | 47.60045 | 8.54431 | 33029 ft | 442 kts | 23° |
| 2026-05-08 06:56 | 47.65565 | 8.58368 | 33038 ft | 441 kts | 23° |
| 2026-05-08 06:57 | 47.71088 | 8.62317 | 33046 ft | 440 kts | 23° |
| 2026-05-08 06:57 | 47.76566 | 8.66244 | 33045 ft | 439 kts | 24° |
| 2026-05-08 06:58 | 47.82042 | 8.70180 | 33047 ft | 439 kts | 24° |
| 2026-05-08 06:58 | 47.87552 | 8.74150 | 33044 ft | 438 kts | 24° |
| 2026-05-08 06:59 | 47.92997 | 8.78084 | 33045 ft | 438 kts | 24° |
| 2026-05-08 06:59 | 47.98462 | 8.82041 | 33045 ft | 438 kts | 24° |
| 2026-05-08 07:00 | 48.03928 | 8.86011 | 33042 ft | 437 kts | 24° |
| 2026-05-08 07:00 | 48.09414 | 8.90000 | 33043 ft | 437 kts | 23° |
| 2026-05-08 07:01 | 48.14999 | 8.93391 | 33044 ft | 434 kts | 16° |
| 2026-05-08 07:01 | 48.20828 | 8.95686 | 33041 ft | 432 kts | 8° |
| 2026-05-08 07:02 | 48.26725 | 8.96887 | 33040 ft | 430 kts | 3° |
| 2026-05-08 07:02 | 48.32669 | 8.97753 | 33041 ft | 430 kts | 2° |
| 2026-05-08 07:03 | 48.38600 | 8.98632 | 32554 ft | 434 kts | 2° |
| 2026-05-08 07:03 | 48.41640 | 8.99089 | 31642 ft | 441 kts | 3° |
| 2026-05-08 07:03 | 48.44664 | 8.99546 | 30857 ft | 443 kts | 3° |
| 2026-05-08 07:04 | 48.47728 | 9.00013 | 30060 ft | 444 kts | 3° |
| 2026-05-08 07:04 | 48.50780 | 9.00479 | 29520 ft | 438 kts | 3° |
| 2026-05-08 07:04 | 48.53769 | 9.00937 | 29030 ft | 432 kts | 3° |
| 2026-05-08 07:04 | 48.56708 | 9.01389 | 28550 ft | 425 kts | 3° |
| 2026-05-08 07:05 | 48.59637 | 9.01839 | 28078 ft | 419 kts | 3° |
| 2026-05-08 07:05 | 48.62523 | 9.02299 | 27606 ft | 413 kts | 4° |
| 2026-05-08 07:05 | 48.65323 | 9.02900 | 27145 ft | 408 kts | 6° |
| 2026-05-08 07:05 | 48.68094 | 9.03556 | 26682 ft | 402 kts | 6° |
| 2026-05-08 07:06 | 48.70844 | 9.04219 | 26221 ft | 397 kts | 6° |
| 2026-05-08 07:06 | 48.73542 | 9.04871 | 25770 ft | 392 kts | 6° |
| 2026-05-08 07:06 | 48.76200 | 9.05510 | 25318 ft | 388 kts | 6° |
| 2026-05-08 07:06 | 48.78838 | 9.06145 | 24873 ft | 383 kts | 6° |
| 2026-05-08 07:07 | 48.81476 | 9.06778 | 24422 ft | 379 kts | 6° |
| 2026-05-08 07:07 | 48.84071 | 9.07400 | 23972 ft | 376 kts | 6° |
| 2026-05-08 07:07 | 48.86639 | 9.08016 | 23524 ft | 372 kts | 6° |
| 2026-05-08 07:07 | 48.89148 | 9.08528 | 23087 ft | 368 kts | 3° |
| 2026-05-08 07:08 | 48.91708 | 9.08912 | 22638 ft | 365 kts | 2° |
| 2026-05-08 07:08 | 48.94191 | 9.09260 | 22203 ft | 362 kts | 2° |
| 2026-05-08 07:08 | 48.96688 | 9.09609 | 21768 ft | 359 kts | 2° |
| 2026-05-08 07:08 | 48.99177 | 9.09961 | 21328 ft | 356 kts | 2° |
| 2026-05-08 07:09 | 49.01640 | 9.10311 | 20896 ft | 354 kts | 2° |
| 2026-05-08 07:09 | 49.04056 | 9.10652 | 20470 ft | 351 kts | 2° |
| 2026-05-08 07:09 | 49.06480 | 9.10996 | 20035 ft | 349 kts | 3° |
| 2026-05-08 07:09 | 49.08882 | 9.11337 | 19604 ft | 347 kts | 3° |
| 2026-05-08 07:10 | 49.11275 | 9.11679 | 19174 ft | 345 kts | 3° |
| 2026-05-08 07:10 | 49.13663 | 9.12021 | 18744 ft | 343 kts | 3° |
| 2026-05-08 07:10 | 49.16009 | 9.12357 | 18322 ft | 341 kts | 3° |
| 2026-05-08 07:10 | 49.18372 | 9.12697 | 17894 ft | 339 kts | 3° |
| 2026-05-08 07:11 | 49.20702 | 9.13031 | 17472 ft | 338 kts | 3° |
| 2026-05-08 07:11 | 49.23059 | 9.13369 | 17042 ft | 336 kts | 3° |
| 2026-05-08 07:11 | 49.25357 | 9.13699 | 16621 ft | 335 kts | 3° |
| 2026-05-08 07:11 | 49.27670 | 9.14075 | 16195 ft | 334 kts | 6° |
| 2026-05-08 07:12 | 49.29957 | 9.14683 | 15743 ft | 334 kts | 10° |
| 2026-05-08 07:12 | 49.32219 | 9.15455 | 15282 ft | 334 kts | 11° |
| 2026-05-08 07:12 | 49.34476 | 9.16258 | 14819 ft | 334 kts | 11° |
| 2026-05-08 07:12 | 49.36752 | 9.17074 | 14350 ft | 334 kts | 11° |
| 2026-05-08 07:13 | 49.39003 | 9.17878 | 13887 ft | 333 kts | 11° |
| 2026-05-08 07:13 | 49.41250 | 9.18681 | 13425 ft | 332 kts | 11° |
| 2026-05-08 07:13 | 49.43486 | 9.19478 | 12965 ft | 330 kts | 11° |
| 2026-05-08 07:13 | 49.45702 | 9.20268 | 12506 ft | 328 kts | 11° |
| 2026-05-08 07:14 | 49.47937 | 9.21064 | 12042 ft | 326 kts | 11° |
| 2026-05-08 07:14 | 49.50124 | 9.21843 | 11585 ft | 324 kts | 11° |
| 2026-05-08 07:14 | 49.52304 | 9.22620 | 11172 ft | 320 kts | 11° |
| 2026-05-08 07:14 | 49.54420 | 9.23375 | 11055 ft | 309 kts | 11° |
| 2026-05-08 07:15 | 49.56535 | 9.24129 | 11057 ft | 309 kts | 11° |
| 2026-05-08 07:15 | 49.58623 | 9.24874 | 11057 ft | 309 kts | 11° |
| 2026-05-08 07:15 | 49.60706 | 9.25619 | 11058 ft | 309 kts | 11° |
| 2026-05-08 07:15 | 49.62822 | 9.26376 | 11060 ft | 309 kts | 12° |
| 2026-05-08 07:16 | 49.64908 | 9.27124 | 11062 ft | 309 kts | 12° |
| 2026-05-08 07:16 | 49.66988 | 9.27871 | 11064 ft | 309 kts | 12° |
| 2026-05-08 07:16 | 49.69081 | 9.28622 | 11064 ft | 309 kts | 12° |
| 2026-05-08 07:16 | 49.71167 | 9.29371 | 11062 ft | 309 kts | 12° |
| 2026-05-08 07:17 | 49.73266 | 9.30125 | 11063 ft | 309 kts | 12° |
| 2026-05-08 07:17 | 49.75353 | 9.30876 | 11065 ft | 309 kts | 12° |
| 2026-05-08 07:17 | 49.77440 | 9.31628 | 11066 ft | 309 kts | 12° |
| 2026-05-08 07:17 | 49.79541 | 9.32385 | 11066 ft | 309 kts | 12° |
| 2026-05-08 07:18 | 49.81627 | 9.33138 | 11068 ft | 309 kts | 11° |
| 2026-05-08 07:18 | 49.83743 | 9.33407 | 11051 ft | 306 kts | 349° |
| 2026-05-08 07:18 | 49.85695 | 9.32202 | 11061 ft | 304 kts | 323° |
| 2026-05-08 07:18 | 49.87112 | 9.29834 | 11067 ft | 303 kts | 299° |
| 2026-05-08 07:19 | 49.87849 | 9.26789 | 11077 ft | 303 kts | 285° |
| 2026-05-08 07:19 | 49.88416 | 9.23651 | 11073 ft | 303 kts | 285° |
| 2026-05-08 07:19 | 49.88988 | 9.20522 | 11074 ft | 303 kts | 285° |
| 2026-05-08 07:19 | 49.89572 | 9.17377 | 11073 ft | 303 kts | 286° |
| 2026-05-08 07:20 | 49.90165 | 9.14229 | 11073 ft | 303 kts | 286° |
| 2026-05-08 07:20 | 49.90755 | 9.11105 | 11076 ft | 303 kts | 286° |
| 2026-05-08 07:20 | 49.91349 | 9.07966 | 11074 ft | 303 kts | 286° |
| 2026-05-08 07:20 | 49.91943 | 9.04830 | 11074 ft | 303 kts | 286° |
| 2026-05-08 07:21 | 49.92532 | 9.01734 | 11072 ft | 303 kts | 286° |
| 2026-05-08 07:21 | 49.93130 | 8.98607 | 11071 ft | 303 kts | 286° |
| 2026-05-08 07:21 | 49.93729 | 8.95472 | 11075 ft | 303 kts | 286° |
| 2026-05-08 07:21 | 49.94328 | 8.92335 | 11072 ft | 303 kts | 286° |
| 2026-05-08 07:22 | 49.94920 | 8.89226 | 11074 ft | 303 kts | 286° |
| 2026-05-08 07:22 | 49.95522 | 8.86060 | 11075 ft | 303 kts | 286° |
| 2026-05-08 07:22 | 49.96113 | 8.82944 | 11075 ft | 303 kts | 286° |
| 2026-05-08 07:22 | 49.96701 | 8.79832 | 11080 ft | 303 kts | 286° |
| 2026-05-08 07:23 | 49.97303 | 8.76643 | 11079 ft | 303 kts | 286° |
| 2026-05-08 07:23 | 49.97841 | 8.73490 | 11076 ft | 303 kts | 278° |
| 2026-05-08 07:23 | 49.97817 | 8.70220 | 11081 ft | 303 kts | 260° |
| 2026-05-08 07:23 | 49.97207 | 8.67114 | 11083 ft | 304 kts | 250° |
| 2026-05-08 07:24 | 49.96452 | 8.64034 | 11085 ft | 304 kts | 250° |
| 2026-05-08 07:24 | 49.95696 | 8.60992 | 11086 ft | 304 kts | 250° |
| 2026-05-08 07:24 | 49.94941 | 8.57928 | 10991 ft | 301 kts | 250° |
| 2026-05-08 07:24 | 49.94206 | 8.54915 | 10458 ft | 299 kts | 250° |
| 2026-05-08 07:25 | 49.93490 | 8.51960 | 10121 ft | 283 kts | 250° |
| 2026-05-08 07:25 | 49.92807 | 8.49136 | 9699 ft | 282 kts | 250° |
| 2026-05-08 07:25 | 49.91446 | 8.43488 | 8788 ft | 280 kts | 250° |
| 2026-05-08 07:26 | 49.90770 | 8.40683 | 8328 ft | 279 kts | 250° |
| 2026-05-08 07:26 | 49.90089 | 8.37869 | 7881 ft | 279 kts | 250° |
| 2026-05-08 07:26 | 49.89410 | 8.35059 | 7430 ft | 280 kts | 250° |
| 2026-05-08 07:26 | 49.88727 | 8.32242 | 6966 ft | 280 kts | 250° |
| 2026-05-08 07:27 | 49.88059 | 8.29487 | 6503 ft | 270 kts | 250° |
| 2026-05-08 07:27 | 49.87405 | 8.26799 | 6035 ft | 260 kts | 250° |
| 2026-05-08 07:27 | 49.86782 | 8.24237 | 5574 ft | 251 kts | 250° |
| 2026-05-08 07:27 | 49.86193 | 8.21766 | 5169 ft | 240 kts | 254° |
| 2026-05-08 07:28 | 49.86144 | 8.19317 | 5055 ft | 226 kts | 292° |
| 2026-05-08 07:28 | 49.86980 | 8.17414 | 5060 ft | 205 kts | 321° |
| 2026-05-08 07:28 | 49.88193 | 8.16345 | 5067 ft | 198 kts | 345° |
| 2026-05-08 07:28 | 49.89525 | 8.16107 | 4983 ft | 191 kts | 7° |
| 2026-05-08 07:29 | 49.90817 | 8.16554 | 4696 ft | 191 kts | 17° |
| 2026-05-08 07:29 | 49.92088 | 8.17145 | 4420 ft | 192 kts | 17° |
| 2026-05-08 07:29 | 49.93362 | 8.17767 | 4154 ft | 191 kts | 25° |
| 2026-05-08 07:29 | 49.94398 | 8.19015 | 4055 ft | 189 kts | 54° |
| 2026-05-08 07:30 | 49.94977 | 8.20823 | 4063 ft | 190 kts | 69° |
| 2026-05-08 07:30 | 49.95430 | 8.22753 | 4056 ft | 190 kts | 70° |
| 2026-05-08 07:30 | 49.95876 | 8.24678 | 4052 ft | 190 kts | 69° |
| 2026-05-08 07:30 | 49.96343 | 8.26610 | 4036 ft | 188 kts | 68° |
| 2026-05-08 07:31 | 49.96807 | 8.28439 | 3795 ft | 184 kts | 68° |
| 2026-05-08 07:31 | 49.97271 | 8.30305 | 3449 ft | 182 kts | 69° |
| 2026-05-08 07:31 | 49.97699 | 8.32080 | 3201 ft | 172 kts | 69° |
| 2026-05-08 07:31 | 49.98111 | 8.33815 | 2979 ft | 170 kts | 70° |
| 2026-05-08 07:32 | 49.98510 | 8.35509 | 2762 ft | 169 kts | 70° |
| 2026-05-08 07:32 | 49.98912 | 8.37221 | 2561 ft | 168 kts | 70° |
| 2026-05-08 07:32 | 49.99303 | 8.38880 | 2335 ft | 158 kts | 70° |
| 2026-05-08 07:32 | 49.99667 | 8.40424 | 2115 ft | 146 kts | 70° |
| 2026-05-08 07:33 | 50.00002 | 8.41841 | 1896 ft | 133 kts | 70° |
| 2026-05-08 07:33 | 50.00309 | 8.43137 | 1702 ft | 124 kts | 70° |
| 2026-05-08 07:33 | 50.00606 | 8.44389 | 1553 ft | 124 kts | 69° |
| 2026-05-08 07:33 | 50.00907 | 8.45658 | 1395 ft | 124 kts | 69° |
| 2026-05-08 07:34 | 50.01204 | 8.46909 | 1234 ft | 124 kts | 69° |
| 2026-05-08 07:34 | 50.01504 | 8.48172 | 1066 ft | 124 kts | 69° |
| 2026-05-08 07:34 | 50.01804 | 8.49434 | 894 ft | 124 kts | 69° |
| 2026-05-08 07:34 | 50.02103 | 8.50688 | 723 ft | 124 kts | 68° |
| 2026-05-08 07:35 | 50.02401 | 8.51942 | 549 ft | 124 kts | 68° |
| 2026-05-08 07:35 | 50.02703 | 8.53209 | 377 ft | 124 kts | 66° |
| 2026-05-08 07:35 | 50.02992 | 8.54406 | 328 ft | 102 kts | 69° |
| 2026-05-08 07:35 | 50.03179 | 8.55196 | 331 ft | 53 kts | 70° |
| 2026-05-08 07:36 | 50.03287 | 8.55636 | 331 ft | 39 kts | 60° |
| 2026-05-08 07:36 | 50.03430 | 8.55851 | 334 ft | 15 kts | 38° |
| 2026-05-08 07:36 | 50.03474 | 8.55906 | 334 ft | 2 kts | 39° |
| 2026-05-08 07:36 | 50.03490 | 8.55926 | 334 ft | 3 kts | 39° |
| 2026-05-08 07:37 | 50.03534 | 8.55983 | 335 ft | 20 kts | 40° |
| 2026-05-08 07:37 | 50.03654 | 8.56161 | 337 ft | 23 kts | 60° |
| 2026-05-08 07:37 | 50.03714 | 8.56400 | 340 ft | 23 kts | 69° |
| 2026-05-08 07:37 | 50.03771 | 8.56638 | 343 ft | 23 kts | 69° |
| 2026-05-08 07:38 | 50.03827 | 8.56872 | 344 ft | 22 kts | 69° |
| 2026-05-08 07:38 | 50.03880 | 8.57099 | 348 ft | 23 kts | 69° |
| 2026-05-08 07:38 | 50.03935 | 8.57326 | 351 ft | 21 kts | 70° |
| 2026-05-08 07:38 | 50.03986 | 8.57537 | 354 ft | 20 kts | 69° |
| 2026-05-08 07:39 | 50.04038 | 8.57757 | 359 ft | 24 kts | 69° |
| 2026-05-08 07:39 | 50.04096 | 8.57998 | 362 ft | 22 kts | 68° |
| 2026-05-08 07:39 | 50.04187 | 8.58170 | 364 ft | 21 kts | 26° |
| 2026-05-08 07:39 | 50.04322 | 8.58182 | 367 ft | 19 kts | 337° |
| 2026-05-08 07:40 | 50.04447 | 8.58111 | 369 ft | 18 kts | 340° |
| 2026-05-08 07:40 | 50.04538 | 8.58001 | 370 ft | 18 kts | 262° |
| 2026-05-08 07:40 | 50.04480 | 8.57755 | 365 ft | 27 kts | 249° |
| 2026-05-08 07:40 | 50.04414 | 8.57474 | 362 ft | 27 kts | 249° |
| 2026-05-08 07:41 | 50.04351 | 8.57209 | 364 ft | 26 kts | 249° |
| 2026-05-08 07:41 | 50.04287 | 8.56945 | 363 ft | 26 kts | 250° |
| 2026-05-08 07:41 | 50.04221 | 8.56671 | 356 ft | 28 kts | 249° |
| 2026-05-08 07:41 | 50.04155 | 8.56396 | 353 ft | 18 kts | 250° |
| 2026-05-08 07:42 | 50.04190 | 8.56269 | 354 ft | 14 kts | 337° |
| 2026-05-08 07:42 | 50.04281 | 8.56211 | 356 ft | 13 kts | 316° |
| 2026-05-08 07:42 | 50.04308 | 8.56083 | 356 ft | 10 kts | 320° |
| 2026-05-08 07:42 | 50.04375 | 8.56037 | 358 ft | 10 kts | 341° |
| 2026-05-08 07:43 | 50.04437 | 8.56058 | 359 ft | 10 kts | 56° |
| 2026-05-08 07:43 | 50.04446 | 8.56127 | 359 ft | 5 kts | 131° |
| 2026-05-08 07:43 | 50.04410 | 8.56154 | 358 ft | 5 kts | 154° |
| 2026-05-08 07:43 | 50.04395 | 8.56164 | 358 ft | 0 kts | 154° |
| 2026-05-08 07:44 | 50.04394 | 8.56165 | 358 ft | 0 kts | 154° |